sensor_id;sensor_type;location;lat;lon;timestamp;temperature;humidity
74376;HTU21D;62812;55.188;61.302;2022-10-31T00:01:49;0.87;67.10
74376;HTU21D;62812;55.188;61.302;2022-10-31T00:04:16;0.82;67.68
74376;HTU21D;62812;55.188;61.302;2022-10-31T00:06:44;0.87;67.61
74376;HTU21D;62812;55.188;61.302;2022-10-31T00:09:10;0.84;68.07
74376;HTU21D;62812;55.188;61.302;2022-10-31T00:11:37;0.84;67.87
74376;HTU21D;62812;55.188;61.302;2022-10-31T00:14:04;0.83;68.26
74376;HTU21D;62812;55.188;61.302;2022-10-31T00:16:31;0.82;68.84
74376;HTU21D;62812;55.188;61.302;2022-10-31T00:18:59;0.81;68.43
74376;HTU21D;62812;55.188;61.302;2022-10-31T00:21:26;0.80;68.36
74376;HTU21D;62812;55.188;61.302;2022-10-31T00:23:54;0.82;68.42
74376;HTU21D;62812;55.188;61.302;2022-10-31T00:26:21;0.88;68.14
74376;HTU21D;62812;55.188;61.302;2022-10-31T00:28:47;0.93;67.67
74376;HTU21D;62812;55.188;61.302;2022-10-31T00:31:14;1.02;67.59
74376;HTU21D;62812;55.188;61.302;2022-10-31T00:33:41;1.05;67.14
74376;HTU21D;62812;55.188;61.302;2022-10-31T00:36:10;1.01;68.63
74376;HTU21D;62812;55.188;61.302;2022-10-31T00:38:37;0.95;68.06
74376;HTU21D;62812;55.188;61.302;2022-10-31T00:41:05;1.01;67.77
74376;HTU21D;62812;55.188;61.302;2022-10-31T00:43:32;0.98;67.56
74376;HTU21D;62812;55.188;61.302;2022-10-31T00:45:58;1.01;67.52
74376;HTU21D;62812;55.188;61.302;2022-10-31T00:48:25;1.04;67.76
74376;HTU21D;62812;55.188;61.302;2022-10-31T00:50:51;1.03;67.72
74376;HTU21D;62812;55.188;61.302;2022-10-31T00:53:18;1.07;68.28
74376;HTU21D;62812;55.188;61.302;2022-10-31T00:55:44;1.09;67.92
74376;HTU21D;62812;55.188;61.302;2022-10-31T00:58:12;1.01;68.34
74376;HTU21D;62812;55.188;61.302;2022-10-31T01:00:39;0.98;68.34
74376;HTU21D;62812;55.188;61.302;2022-10-31T01:03:05;0.97;67.94
74376;HTU21D;62812;55.188;61.302;2022-10-31T01:05:32;0.99;69.87
74376;HTU21D;62812;55.188;61.302;2022-10-31T01:08:01;1.03;68.00
74376;HTU21D;62812;55.188;61.302;2022-10-31T01:10:30;1.03;68.77
74376;HTU21D;62812;55.188;61.302;2022-10-31T01:12:59;1.07;68.87
74376;HTU21D;62812;55.188;61.302;2022-10-31T01:18:44;1.05;69.10
74376;HTU21D;62812;55.188;61.302;2022-10-31T01:21:12;1.09;68.72
74376;HTU21D;62812;55.188;61.302;2022-10-31T01:23:39;1.20;69.33
74376;HTU21D;62812;55.188;61.302;2022-10-31T01:29:10;1.05;69.93
74376;HTU21D;62812;55.188;61.302;2022-10-31T01:32:02;1.07;69.94
74376;HTU21D;62812;55.188;61.302;2022-10-31T01:34:31;1.18;68.46
74376;HTU21D;62812;55.188;61.302;2022-10-31T01:36:57;1.22;69.58
74376;HTU21D;62812;55.188;61.302;2022-10-31T01:39:24;1.29;68.93
74376;HTU21D;62812;55.188;61.302;2022-10-31T01:41:52;1.36;67.98
74376;HTU21D;62812;55.188;61.302;2022-10-31T01:44:48;1.33;70.37
74376;HTU21D;62812;55.188;61.302;2022-10-31T01:47:17;1.41;68.94
74376;HTU21D;62812;55.188;61.302;2022-10-31T01:49:48;1.40;70.52
74376;HTU21D;62812;55.188;61.302;2022-10-31T01:52:20;1.46;68.90
74376;HTU21D;62812;55.188;61.302;2022-10-31T01:54:51;1.56;68.75
74376;HTU21D;62812;55.188;61.302;2022-10-31T01:57:18;1.47;69.61
74376;HTU21D;62812;55.188;61.302;2022-10-31T01:59:52;1.52;69.29
74376;HTU21D;62812;55.188;61.302;2022-10-31T02:02:20;1.54;69.81
74376;HTU21D;62812;55.188;61.302;2022-10-31T02:04:48;1.54;69.52
74376;HTU21D;62812;55.188;61.302;2022-10-31T02:07:21;1.55;69.81
74376;HTU21D;62812;55.188;61.302;2022-10-31T02:09:51;1.60;81.68
74376;HTU21D;62812;55.188;61.302;2022-10-31T02:12:20;1.61;76.92
74376;HTU21D;62812;55.188;61.302;2022-10-31T02:14:46;1.66;76.82
74376;HTU21D;62812;55.188;61.302;2022-10-31T02:17:13;1.69;74.80
74376;HTU21D;62812;55.188;61.302;2022-10-31T02:19:46;1.76;73.70
74376;HTU21D;62812;55.188;61.302;2022-10-31T02:22:26;1.81;72.64
74376;HTU21D;62812;55.188;61.302;2022-10-31T02:25:09;1.75;72.47
74376;HTU21D;62812;55.188;61.302;2022-10-31T02:28:03;1.72;72.34
74376;HTU21D;62812;55.188;61.302;2022-10-31T02:30:40;1.76;71.32
74376;HTU21D;62812;55.188;61.302;2022-10-31T02:33:30;1.80;72.03
74376;HTU21D;62812;55.188;61.302;2022-10-31T02:36:09;1.86;71.22
74376;HTU21D;62812;55.188;61.302;2022-10-31T02:38:45;1.84;71.55
74376;HTU21D;62812;55.188;61.302;2022-10-31T02:41:19;1.82;71.20
74376;HTU21D;62812;55.188;61.302;2022-10-31T02:44:02;1.77;71.68
74376;HTU21D;62812;55.188;61.302;2022-10-31T02:46:34;1.79;72.77
74376;HTU21D;62812;55.188;61.302;2022-10-31T02:49:09;1.72;73.14
74376;HTU21D;62812;55.188;61.302;2022-10-31T02:51:39;1.87;71.38
74376;HTU21D;62812;55.188;61.302;2022-10-31T02:54:14;1.92;72.66
74376;HTU21D;62812;55.188;61.302;2022-10-31T02:56:42;1.87;74.26
74376;HTU21D;62812;55.188;61.302;2022-10-31T02:59:09;1.76;73.59
74376;HTU21D;62812;55.188;61.302;2022-10-31T03:02:00;1.77;73.17
74376;HTU21D;62812;55.188;61.302;2022-10-31T03:05:05;1.79;72.87
74376;HTU21D;62812;55.188;61.302;2022-10-31T03:07:40;1.82;72.88
74376;HTU21D;62812;55.188;61.302;2022-10-31T03:10:16;1.88;73.81
74376;HTU21D;62812;55.188;61.302;2022-10-31T03:12:52;1.84;74.98
74376;HTU21D;62812;55.188;61.302;2022-10-31T03:15:25;1.84;75.20
74376;HTU21D;62812;55.188;61.302;2022-10-31T03:18:03;1.75;74.33
74376;HTU21D;62812;55.188;61.302;2022-10-31T03:20:37;1.77;74.52
74376;HTU21D;62812;55.188;61.302;2022-10-31T03:23:06;1.76;74.77
74376;HTU21D;62812;55.188;61.302;2022-10-31T03:25:37;1.77;74.54
74376;HTU21D;62812;55.188;61.302;2022-10-31T03:28:06;1.86;74.48
74376;HTU21D;62812;55.188;61.302;2022-10-31T03:30:35;1.97;73.03
74376;HTU21D;62812;55.188;61.302;2022-10-31T03:33:08;2.02;74.87
74376;HTU21D;62812;55.188;61.302;2022-10-31T03:35:41;2.06;73.09
74376;HTU21D;62812;55.188;61.302;2022-10-31T03:38:14;2.12;73.45
74376;HTU21D;62812;55.188;61.302;2022-10-31T03:40:46;2.16;73.51
74376;HTU21D;62812;55.188;61.302;2022-10-31T03:43:21;2.17;74.30
74376;HTU21D;62812;55.188;61.302;2022-10-31T03:45:51;2.08;76.44
74376;HTU21D;62812;55.188;61.302;2022-10-31T03:48:19;2.08;75.87
74376;HTU21D;62812;55.188;61.302;2022-10-31T03:50:54;2.10;74.50
74376;HTU21D;62812;55.188;61.302;2022-10-31T03:53:26;2.15;74.44
74376;HTU21D;62812;55.188;61.302;2022-10-31T03:56:07;2.17;76.01
74376;HTU21D;62812;55.188;61.302;2022-10-31T03:59:04;2.19;74.15
74376;HTU21D;62812;55.188;61.302;2022-10-31T04:01:34;2.14;74.28
74376;HTU21D;62812;55.188;61.302;2022-10-31T04:04:04;2.20;75.12
74376;HTU21D;62812;55.188;61.302;2022-10-31T04:06:39;2.27;75.01
74376;HTU21D;62812;55.188;61.302;2022-10-31T04:09:15;2.29;75.36
74376;HTU21D;62812;55.188;61.302;2022-10-31T04:11:47;2.35;75.95
74376;HTU21D;62812;55.188;61.302;2022-10-31T04:14:15;2.42;74.62
74376;HTU21D;62812;55.188;61.302;2022-10-31T04:16:43;2.46;75.15
74376;HTU21D;62812;55.188;61.302;2022-10-31T04:19:10;2.54;73.90
74376;HTU21D;62812;55.188;61.302;2022-10-31T04:21:38;2.55;73.90
74376;HTU21D;62812;55.188;61.302;2022-10-31T04:24:05;2.56;75.87
74376;HTU21D;62812;55.188;61.302;2022-10-31T04:26:32;2.58;74.47
74376;HTU21D;62812;55.188;61.302;2022-10-31T04:29:01;2.58;75.83
74376;HTU21D;62812;55.188;61.302;2022-10-31T04:31:30;2.66;74.69
74376;HTU21D;62812;55.188;61.302;2022-10-31T04:33:56;2.69;74.78
74376;HTU21D;62812;55.188;61.302;2022-10-31T04:36:25;2.71;76.91
74376;HTU21D;62812;55.188;61.302;2022-10-31T04:38:56;2.76;74.55
74376;HTU21D;62812;55.188;61.302;2022-10-31T04:41:22;2.81;74.36
74376;HTU21D;62812;55.188;61.302;2022-10-31T04:43:49;2.91;74.47
74376;HTU21D;62812;55.188;61.302;2022-10-31T04:46:16;2.95;76.12
74376;HTU21D;62812;55.188;61.302;2022-10-31T04:48:42;2.95;75.58
74376;HTU21D;62812;55.188;61.302;2022-10-31T04:51:09;3.05;73.90
74376;HTU21D;62812;55.188;61.302;2022-10-31T04:53:35;3.09;75.59
74376;HTU21D;62812;55.188;61.302;2022-10-31T04:56:04;3.13;73.86
74376;HTU21D;62812;55.188;61.302;2022-10-31T04:58:34;3.16;76.78
74376;HTU21D;62812;55.188;61.302;2022-10-31T05:01:02;3.19;73.64
74376;HTU21D;62812;55.188;61.302;2022-10-31T05:03:29;3.28;73.65
74376;HTU21D;62812;55.188;61.302;2022-10-31T05:05:56;3.32;76.06
74376;HTU21D;62812;55.188;61.302;2022-10-31T05:08:22;3.39;74.67
74376;HTU21D;62812;55.188;61.302;2022-10-31T05:10:48;3.43;76.63
74376;HTU21D;62812;55.188;61.302;2022-10-31T05:13:17;3.46;75.95
74376;HTU21D;62812;55.188;61.302;2022-10-31T05:15:45;3.42;76.05
74376;HTU21D;62812;55.188;61.302;2022-10-31T05:18:12;3.47;73.93
74376;HTU21D;62812;55.188;61.302;2022-10-31T05:20:39;3.46;74.85
74376;HTU21D;62812;55.188;61.302;2022-10-31T05:23:05;3.53;75.30
74376;HTU21D;62812;55.188;61.302;2022-10-31T05:25:32;3.56;74.38
74376;HTU21D;62812;55.188;61.302;2022-10-31T05:28:00;3.68;73.54
74376;HTU21D;62812;55.188;61.302;2022-10-31T05:30:43;3.68;75.27
74376;HTU21D;62812;55.188;61.302;2022-10-31T05:33:33;3.72;75.86
74376;HTU21D;62812;55.188;61.302;2022-10-31T05:36:05;3.73;75.83
74376;HTU21D;62812;55.188;61.302;2022-10-31T05:38:35;3.78;78.07
74376;HTU21D;62812;55.188;61.302;2022-10-31T05:41:06;3.72;77.50
74376;HTU21D;62812;55.188;61.302;2022-10-31T05:43:33;3.67;76.52
74376;HTU21D;62812;55.188;61.302;2022-10-31T05:46:04;3.65;76.18
74376;HTU21D;62812;55.188;61.302;2022-10-31T05:48:33;3.75;74.96
74376;HTU21D;62812;55.188;61.302;2022-10-31T05:51:04;3.82;76.12
74376;HTU21D;62812;55.188;61.302;2022-10-31T05:53:31;3.91;75.64
74376;HTU21D;62812;55.188;61.302;2022-10-31T05:55:57;3.92;74.31
74376;HTU21D;62812;55.188;61.302;2022-10-31T05:58:24;3.89;76.08
74376;HTU21D;62812;55.188;61.302;2022-10-31T06:00:50;3.98;76.15
74376;HTU21D;62812;55.188;61.302;2022-10-31T06:03:18;4.04;73.93
74376;HTU21D;62812;55.188;61.302;2022-10-31T06:05:45;4.06;77.46
74376;HTU21D;62812;55.188;61.302;2022-10-31T06:08:11;4.05;75.20
74376;HTU21D;62812;55.188;61.302;2022-10-31T06:10:38;4.08;74.43
74376;HTU21D;62812;55.188;61.302;2022-10-31T06:13:04;4.12;74.63
74376;HTU21D;62812;55.188;61.302;2022-10-31T06:15:32;4.17;75.72
74376;HTU21D;62812;55.188;61.302;2022-10-31T06:18:21;4.21;76.84
74376;HTU21D;62812;55.188;61.302;2022-10-31T06:20:48;4.14;76.41
74376;HTU21D;62812;55.188;61.302;2022-10-31T06:23:14;4.18;76.28
74376;HTU21D;62812;55.188;61.302;2022-10-31T06:25:41;4.15;75.92
74376;HTU21D;62812;55.188;61.302;2022-10-31T06:28:08;4.18;74.20
74376;HTU21D;62812;55.188;61.302;2022-10-31T06:30:38;4.13;78.79
74376;HTU21D;62812;55.188;61.302;2022-10-31T06:33:05;4.09;84.81
74376;HTU21D;62812;55.188;61.302;2022-10-31T06:39:34;4.37;83.49
74376;HTU21D;62812;55.188;61.302;2022-10-31T06:42:10;4.48;82.01
74376;HTU21D;62812;55.188;61.302;2022-10-31T06:44:39;4.51;79.92
74376;HTU21D;62812;55.188;61.302;2022-10-31T06:47:06;4.54;78.60
74376;HTU21D;62812;55.188;61.302;2022-10-31T06:49:35;4.50;78.30
74376;HTU21D;62812;55.188;61.302;2022-10-31T06:52:05;4.52;77.85
74376;HTU21D;62812;55.188;61.302;2022-10-31T06:54:31;4.53;77.76
74376;HTU21D;62812;55.188;61.302;2022-10-31T06:57:01;4.58;76.95
74376;HTU21D;62812;55.188;61.302;2022-10-31T06:59:27;4.58;77.44
74376;HTU21D;62812;55.188;61.302;2022-10-31T07:01:54;4.62;76.56
74376;HTU21D;62812;55.188;61.302;2022-10-31T07:04:20;4.66;77.10
74376;HTU21D;62812;55.188;61.302;2022-10-31T07:06:50;4.60;76.99
74376;HTU21D;62812;55.188;61.302;2022-10-31T07:09:19;4.64;77.01
74376;HTU21D;62812;55.188;61.302;2022-10-31T07:11:50;4.75;76.47
74376;HTU21D;62812;55.188;61.302;2022-10-31T07:14:24;4.63;77.36
74376;HTU21D;62812;55.188;61.302;2022-10-31T07:16:54;4.60;77.77
74376;HTU21D;62812;55.188;61.302;2022-10-31T07:19:21;4.62;77.75
74376;HTU21D;62812;55.188;61.302;2022-10-31T07:21:47;4.74;76.97
74376;HTU21D;62812;55.188;61.302;2022-10-31T07:24:16;4.84;76.65
74376;HTU21D;62812;55.188;61.302;2022-10-31T07:26:46;4.89;75.98
74376;HTU21D;62812;55.188;61.302;2022-10-31T07:29:15;4.95;76.69
74376;HTU21D;62812;55.188;61.302;2022-10-31T07:31:42;4.90;76.94
74376;HTU21D;62812;55.188;61.302;2022-10-31T07:34:10;4.94;75.63
74376;HTU21D;62812;55.188;61.302;2022-10-31T07:36:36;4.96;75.56
74376;HTU21D;62812;55.188;61.302;2022-10-31T07:39:03;4.93;75.95
74376;HTU21D;62812;55.188;61.302;2022-10-31T07:41:31;4.94;76.22
74376;HTU21D;62812;55.188;61.302;2022-10-31T07:43:59;4.94;76.66
74376;HTU21D;62812;55.188;61.302;2022-10-31T07:46:25;4.90;77.05
74376;HTU21D;62812;55.188;61.302;2022-10-31T07:48:52;4.90;76.79
74376;HTU21D;62812;55.188;61.302;2022-10-31T07:51:18;4.94;75.86
74376;HTU21D;62812;55.188;61.302;2022-10-31T07:53:45;5.05;76.02
74376;HTU21D;62812;55.188;61.302;2022-10-31T07:56:11;5.12;75.01
74376;HTU21D;62812;55.188;61.302;2022-10-31T07:58:38;5.19;75.40
74376;HTU21D;62812;55.188;61.302;2022-10-31T08:01:05;5.23;74.79
74376;HTU21D;62812;55.188;61.302;2022-10-31T08:03:32;5.19;75.28
74376;HTU21D;62812;55.188;61.302;2022-10-31T08:06:01;5.24;75.53
74376;HTU21D;62812;55.188;61.302;2022-10-31T08:08:28;5.23;75.69
74376;HTU21D;62812;55.188;61.302;2022-10-31T08:10:55;5.18;76.35
74376;HTU21D;62812;55.188;61.302;2022-10-31T08:13:21;5.11;76.19
74376;HTU21D;62812;55.188;61.302;2022-10-31T08:15:47;5.15;76.08
74376;HTU21D;62812;55.188;61.302;2022-10-31T08:18:18;5.19;75.39
74376;HTU21D;62812;55.188;61.302;2022-10-31T08:20:44;5.25;75.15
74376;HTU21D;62812;55.188;61.302;2022-10-31T08:23:11;5.18;76.53
74376;HTU21D;62812;55.188;61.302;2022-10-31T08:25:38;5.16;75.10
74376;HTU21D;62812;55.188;61.302;2022-10-31T08:28:06;5.18;74.73
74376;HTU21D;62812;55.188;61.302;2022-10-31T08:30:34;5.21;76.18
74376;HTU21D;62812;55.188;61.302;2022-10-31T08:33:02;5.27;75.51
74376;HTU21D;62812;55.188;61.302;2022-10-31T08:35:43;5.26;75.86
74376;HTU21D;62812;55.188;61.302;2022-10-31T08:38:10;5.25;75.31
74376;HTU21D;62812;55.188;61.302;2022-10-31T08:40:37;5.24;76.43
74376;HTU21D;62812;55.188;61.302;2022-10-31T08:43:05;5.21;75.21
74376;HTU21D;62812;55.188;61.302;2022-10-31T08:45:33;5.38;74.65
74376;HTU21D;62812;55.188;61.302;2022-10-31T08:48:02;5.46;74.83
74376;HTU21D;62812;55.188;61.302;2022-10-31T08:50:29;5.57;74.20
74376;HTU21D;62812;55.188;61.302;2022-10-31T08:53:01;5.62;73.96
74376;HTU21D;62812;55.188;61.302;2022-10-31T08:55:28;5.66;73.83
74376;HTU21D;62812;55.188;61.302;2022-10-31T08:57:55;5.69;73.44
74376;HTU21D;62812;55.188;61.302;2022-10-31T09:00:22;5.71;73.46
74376;HTU21D;62812;55.188;61.302;2022-10-31T09:02:54;5.72;73.29
74376;HTU21D;62812;55.188;61.302;2022-10-31T09:05:21;5.76;73.86
74376;HTU21D;62812;55.188;61.302;2022-10-31T09:07:48;5.69;74.18
74376;HTU21D;62812;55.188;61.302;2022-10-31T09:10:16;5.72;73.32
74376;HTU21D;62812;55.188;61.302;2022-10-31T09:12:42;5.64;73.87
74376;HTU21D;62812;55.188;61.302;2022-10-31T09:15:09;5.63;73.90
74376;HTU21D;62812;55.188;61.302;2022-10-31T09:17:36;5.54;74.84
74376;HTU21D;62812;55.188;61.302;2022-10-31T09:20:02;5.53;74.40
74376;HTU21D;62812;55.188;61.302;2022-10-31T09:22:29;5.54;75.25
74376;HTU21D;62812;55.188;61.302;2022-10-31T09:24:55;5.55;74.40
74376;HTU21D;62812;55.188;61.302;2022-10-31T09:27:23;5.62;73.88
74376;HTU21D;62812;55.188;61.302;2022-10-31T09:29:50;5.65;73.83
74376;HTU21D;62812;55.188;61.302;2022-10-31T09:32:16;5.65;73.65
74376;HTU21D;62812;55.188;61.302;2022-10-31T09:34:43;5.67;74.10
74376;HTU21D;62812;55.188;61.302;2022-10-31T09:37:09;5.74;73.09
74376;HTU21D;62812;55.188;61.302;2022-10-31T09:39:36;5.77;73.22
74376;HTU21D;62812;55.188;61.302;2022-10-31T09:42:12;5.75;73.28
74376;HTU21D;62812;55.188;61.302;2022-10-31T09:44:51;5.76;73.86
74376;HTU21D;62812;55.188;61.302;2022-10-31T09:47:26;5.69;74.03
74376;HTU21D;62812;55.188;61.302;2022-10-31T09:50:11;5.65;74.82
74376;HTU21D;62812;55.188;61.302;2022-10-31T09:52:42;5.57;73.75
74376;HTU21D;62812;55.188;61.302;2022-10-31T09:55:15;5.68;73.24
74376;HTU21D;62812;55.188;61.302;2022-10-31T09:57:44;5.77;73.96
74376;HTU21D;62812;55.188;61.302;2022-10-31T10:00:16;5.65;74.43
74376;HTU21D;62812;55.188;61.302;2022-10-31T10:02:46;5.64;74.44
74376;HTU21D;62812;55.188;61.302;2022-10-31T10:05:19;5.57;73.67
74376;HTU21D;62812;55.188;61.302;2022-10-31T10:07:52;5.67;74.40
74376;HTU21D;62812;55.188;61.302;2022-10-31T10:10:37;5.60;73.79
74376;HTU21D;62812;55.188;61.302;2022-10-31T10:13:15;5.62;75.06
74376;HTU21D;62812;55.188;61.302;2022-10-31T10:16:10;5.61;74.60
74376;HTU21D;62812;55.188;61.302;2022-10-31T10:18:46;5.53;75.30
74376;HTU21D;62812;55.188;61.302;2022-10-31T10:21:25;5.53;75.34
74376;HTU21D;62812;55.188;61.302;2022-10-31T10:24:03;5.49;75.45
74376;HTU21D;62812;55.188;61.302;2022-10-31T10:26:36;5.46;76.20
74376;HTU21D;62812;55.188;61.302;2022-10-31T10:29:16;5.43;76.47
74376;HTU21D;62812;55.188;61.302;2022-10-31T10:31:49;5.38;75.65
74376;HTU21D;62812;55.188;61.302;2022-10-31T10:34:20;5.36;77.01
74376;HTU21D;62812;55.188;61.302;2022-10-31T10:36:56;5.36;75.89
74376;HTU21D;62812;55.188;61.302;2022-10-31T10:39:30;5.34;76.29
74376;HTU21D;62812;55.188;61.302;2022-10-31T10:41:59;5.36;75.90
74376;HTU21D;62812;55.188;61.302;2022-10-31T10:44:47;5.45;75.98
74376;HTU21D;62812;55.188;61.302;2022-10-31T10:47:41;5.49;76.28
74376;HTU21D;62812;55.188;61.302;2022-10-31T10:50:13;5.47;74.54
74376;HTU21D;62812;55.188;61.302;2022-10-31T10:52:48;5.42;76.85
74376;HTU21D;62812;55.188;61.302;2022-10-31T10:55:26;5.48;73.99
74376;HTU21D;62812;55.188;61.302;2022-10-31T11:01:13;5.47;76.63
74376;HTU21D;62812;55.188;61.302;2022-10-31T11:03:44;5.55;74.85
74376;HTU21D;62812;55.188;61.302;2022-10-31T11:06:18;5.54;75.24
74376;HTU21D;62812;55.188;61.302;2022-10-31T11:08:50;5.54;75.18
74376;HTU21D;62812;55.188;61.302;2022-10-31T11:11:24;5.51;75.14
74376;HTU21D;62812;55.188;61.302;2022-10-31T11:14:03;5.50;76.10
74376;HTU21D;62812;55.188;61.302;2022-10-31T11:16:33;5.49;74.30
74376;HTU21D;62812;55.188;61.302;2022-10-31T11:19:15;5.55;75.34
74376;HTU21D;62812;55.188;61.302;2022-10-31T11:21:43;5.52;76.98
74376;HTU21D;62812;55.188;61.302;2022-10-31T11:24:16;5.51;75.86
74376;HTU21D;62812;55.188;61.302;2022-10-31T11:26:44;5.40;75.64
74376;HTU21D;62812;55.188;61.302;2022-10-31T11:29:14;5.48;75.08
74376;HTU21D;62812;55.188;61.302;2022-10-31T11:31:42;5.55;75.57
74376;HTU21D;62812;55.188;61.302;2022-10-31T11:34:27;5.59;74.44
74376;HTU21D;62812;55.188;61.302;2022-10-31T11:36:58;5.60;75.37
74376;HTU21D;62812;55.188;61.302;2022-10-31T11:39:26;5.63;74.84
74376;HTU21D;62812;55.188;61.302;2022-10-31T11:41:54;5.70;74.89
74376;HTU21D;62812;55.188;61.302;2022-10-31T11:44:23;5.70;74.80
74376;HTU21D;62812;55.188;61.302;2022-10-31T11:47:13;5.74;75.20
74376;HTU21D;62812;55.188;61.302;2022-10-31T11:49:44;5.67;74.53
74376;HTU21D;62812;55.188;61.302;2022-10-31T11:52:15;5.63;75.93
74376;HTU21D;62812;55.188;61.302;2022-10-31T11:54:46;5.59;75.70
74376;HTU21D;62812;55.188;61.302;2022-10-31T11:57:24;5.59;75.01
74376;HTU21D;62812;55.188;61.302;2022-10-31T11:59:52;5.61;76.08
74376;HTU21D;62812;55.188;61.302;2022-10-31T12:02:19;5.59;76.92
74376;HTU21D;62812;55.188;61.302;2022-10-31T12:04:54;5.61;74.80
74376;HTU21D;62812;55.188;61.302;2022-10-31T12:07:22;5.62;75.09
74376;HTU21D;62812;55.188;61.302;2022-10-31T12:09:49;5.64;75.25
74376;HTU21D;62812;55.188;61.302;2022-10-31T12:12:36;5.64;75.26
74376;HTU21D;62812;55.188;61.302;2022-10-31T12:15:29;5.71;74.74
74376;HTU21D;62812;55.188;61.302;2022-10-31T12:18:03;5.67;77.04
74376;HTU21D;62812;55.188;61.302;2022-10-31T12:20:41;5.60;77.63
74376;HTU21D;62812;55.188;61.302;2022-10-31T12:23:18;5.52;77.74
74376;HTU21D;62812;55.188;61.302;2022-10-31T12:25:51;5.51;76.63
74376;HTU21D;62812;55.188;61.302;2022-10-31T12:28:43;5.50;78.13
74376;HTU21D;62812;55.188;61.302;2022-10-31T12:31:20;5.49;78.82
74376;HTU21D;62812;55.188;61.302;2022-10-31T12:33:56;5.42;77.60
74376;HTU21D;62812;55.188;61.302;2022-10-31T12:36:32;5.43;75.86
74376;HTU21D;62812;55.188;61.302;2022-10-31T12:39:23;5.55;75.38
74376;HTU21D;62812;55.188;61.302;2022-10-31T12:41:52;5.60;76.63
74376;HTU21D;62812;55.188;61.302;2022-10-31T12:47:44;5.53;76.42
74376;HTU21D;62812;55.188;61.302;2022-10-31T12:50:31;5.50;76.89
74376;HTU21D;62812;55.188;61.302;2022-10-31T12:53:13;5.46;77.89
74376;HTU21D;62812;55.188;61.302;2022-10-31T12:55:52;5.35;79.85
74376;HTU21D;62812;55.188;61.302;2022-10-31T12:58:24;5.31;80.56
74376;HTU21D;62812;55.188;61.302;2022-10-31T13:00:57;5.30;78.83
74376;HTU21D;62812;55.188;61.302;2022-10-31T13:03:28;5.36;78.24
74376;HTU21D;62812;55.188;61.302;2022-10-31T13:05:58;5.38;80.07
74376;HTU21D;62812;55.188;61.302;2022-10-31T13:08:34;5.23;80.80
74376;HTU21D;62812;55.188;61.302;2022-10-31T13:11:08;5.22;79.15
74376;HTU21D;62812;55.188;61.302;2022-10-31T13:13:39;5.23;80.53
74376;HTU21D;62812;55.188;61.302;2022-10-31T13:16:13;5.22;80.62
74376;HTU21D;62812;55.188;61.302;2022-10-31T13:18:47;5.25;80.33
74376;HTU21D;62812;55.188;61.302;2022-10-31T13:21:18;5.22;79.87
74376;HTU21D;62812;55.188;61.302;2022-10-31T13:23:49;5.27;80.41
74376;HTU21D;62812;55.188;61.302;2022-10-31T13:26:27;5.27;79.68
74376;HTU21D;62812;55.188;61.302;2022-10-31T13:29:02;5.32;78.00
74376;HTU21D;62812;55.188;61.302;2022-10-31T13:31:30;5.36;78.61
74376;HTU21D;62812;55.188;61.302;2022-10-31T13:33:59;5.41;77.76
74376;HTU21D;62812;55.188;61.302;2022-10-31T13:36:35;5.40;79.62
74376;HTU21D;62812;55.188;61.302;2022-10-31T13:39:23;5.41;77.69
74376;HTU21D;62812;55.188;61.302;2022-10-31T13:41:54;5.47;78.75
74376;HTU21D;62812;55.188;61.302;2022-10-31T13:44:26;5.42;79.04
74376;HTU21D;62812;55.188;61.302;2022-10-31T13:46:54;5.46;78.80
74376;HTU21D;62812;55.188;61.302;2022-10-31T13:49:38;5.48;77.95
74376;HTU21D;62812;55.188;61.302;2022-10-31T13:52:15;5.48;78.95
74376;HTU21D;62812;55.188;61.302;2022-10-31T13:54:50;5.49;78.91
74376;HTU21D;62812;55.188;61.302;2022-10-31T13:57:28;5.42;78.59
74376;HTU21D;62812;55.188;61.302;2022-10-31T14:00:03;5.34;78.37
74376;HTU21D;62812;55.188;61.302;2022-10-31T14:02:31;5.37;77.40
74376;HTU21D;62812;55.188;61.302;2022-10-31T14:05:04;5.38;78.54
74376;HTU21D;62812;55.188;61.302;2022-10-31T14:07:34;5.32;79.07
74376;HTU21D;62812;55.188;61.302;2022-10-31T14:10:19;5.24;79.66
74376;HTU21D;62812;55.188;61.302;2022-10-31T14:12:47;5.27;79.44
74376;HTU21D;62812;55.188;61.302;2022-10-31T14:15:19;5.31;79.48
74376;HTU21D;62812;55.188;61.302;2022-10-31T14:17:47;5.38;79.17
74376;HTU21D;62812;55.188;61.302;2022-10-31T14:20:37;5.42;78.49
74376;HTU21D;62812;55.188;61.302;2022-10-31T14:23:33;5.51;78.24
74376;HTU21D;62812;55.188;61.302;2022-10-31T14:26:31;5.43;78.85
74376;HTU21D;62812;55.188;61.302;2022-10-31T14:28:59;5.47;78.24
74376;HTU21D;62812;55.188;61.302;2022-10-31T14:31:33;5.43;79.92
74376;HTU21D;62812;55.188;61.302;2022-10-31T14:34:18;5.39;80.20
74376;HTU21D;62812;55.188;61.302;2022-10-31T14:37:02;5.41;79.53
74376;HTU21D;62812;55.188;61.302;2022-10-31T14:39:37;5.45;78.98
74376;HTU21D;62812;55.188;61.302;2022-10-31T14:42:27;5.51;78.09
74376;HTU21D;62812;55.188;61.302;2022-10-31T14:45:09;5.47;80.10
74376;HTU21D;62812;55.188;61.302;2022-10-31T14:47:47;5.45;79.40
74376;HTU21D;62812;55.188;61.302;2022-10-31T14:50:29;5.47;80.14
74376;HTU21D;62812;55.188;61.302;2022-10-31T14:53:04;5.45;78.17
74376;HTU21D;62812;55.188;61.302;2022-10-31T14:55:32;5.40;78.92
74376;HTU21D;62812;55.188;61.302;2022-10-31T14:58:04;5.35;79.28
74376;HTU21D;62812;55.188;61.302;2022-10-31T15:00:35;5.40;79.06
74376;HTU21D;62812;55.188;61.302;2022-10-31T15:03:10;5.39;80.75
74376;HTU21D;62812;55.188;61.302;2022-10-31T15:05:41;5.32;80.69
74376;HTU21D;62812;55.188;61.302;2022-10-31T15:08:12;5.25;81.58
74376;HTU21D;62812;55.188;61.302;2022-10-31T15:10:46;5.22;79.41
74376;HTU21D;62812;55.188;61.302;2022-10-31T15:13:19;5.20;80.46
74376;HTU21D;62812;55.188;61.302;2022-10-31T15:15:47;5.28;79.46
74376;HTU21D;62812;55.188;61.302;2022-10-31T15:18:18;5.27;80.80
74376;HTU21D;62812;55.188;61.302;2022-10-31T15:20:46;5.27;80.81
74376;HTU21D;62812;55.188;61.302;2022-10-31T15:23:20;5.32;79.67
74376;HTU21D;62812;55.188;61.302;2022-10-31T15:25:47;5.34;79.42
74376;HTU21D;62812;55.188;61.302;2022-10-31T15:28:16;5.36;79.50
74376;HTU21D;62812;55.188;61.302;2022-10-31T15:30:53;5.39;79.17
74376;HTU21D;62812;55.188;61.302;2022-10-31T15:33:21;5.36;80.68
74376;HTU21D;62812;55.188;61.302;2022-10-31T15:36:04;5.33;80.89
74376;HTU21D;62812;55.188;61.302;2022-10-31T15:38:35;5.38;78.37
74376;HTU21D;62812;55.188;61.302;2022-10-31T15:41:04;5.39;79.63
74376;HTU21D;62812;55.188;61.302;2022-10-31T15:43:39;5.41;78.63
74376;HTU21D;62812;55.188;61.302;2022-10-31T15:46:20;5.47;78.56
74376;HTU21D;62812;55.188;61.302;2022-10-31T15:48:48;5.52;79.17
74376;HTU21D;62812;55.188;61.302;2022-10-31T15:51:25;5.53;78.03
74376;HTU21D;62812;55.188;61.302;2022-10-31T15:53:53;5.59;77.77
74376;HTU21D;62812;55.188;61.302;2022-10-31T15:56:26;5.61;78.55
74376;HTU21D;62812;55.188;61.302;2022-10-31T15:58:55;5.59;77.75
74376;HTU21D;62812;55.188;61.302;2022-10-31T16:01:25;5.62;77.99